Time;durP1;ratioP1;P1;durP2;ratioP2;P2;SDS_P1;SDS_P2;PMS_P1;PMS_P2;Temp;Humidity;BMP_temperature;BMP_pressure;BME280_temperature;BME280_humidity;BME280_pressure;Samples;Min_cycle;Max_cycle;Signal;HPM_P1;HPM_P2
2021/06/21 00:01:56;;;;;;;3.60;2.65;;;;;;;27.28;53.85;99532.39;1709179;81;21131;-72
2021/06/21 00:04:22;;;;;;;3.50;2.30;;;;;;;27.25;53.86;99525.04;1718687;81;22337;-72
2021/06/21 00:06:50;;;;;;;2.95;2.50;;;;;;;27.24;53.78;99524.76;1720489;82;22163;-73
2021/06/21 00:09:21;;;;;;;4.17;2.40;;;;;;;27.23;53.75;99529.09;1701690;82;21092;-71
2021/06/21 00:11:50;;;;;;;3.98;2.40;;;;;;;27.21;53.69;99528.02;1694086;82;21537;-71
2021/06/21 00:14:16;;;;;;;7.60;2.45;;;;;;;27.21;53.70;99529.37;1705855;82;21311;-71
2021/06/21 00:16:45;;;;;;;3.65;2.55;;;;;;;27.20;53.65;99534.58;1719344;81;21153;-73
2021/06/21 00:19:13;;;;;;;3.62;2.10;;;;;;;27.19;53.58;99527.48;1718287;82;21116;-71
2021/06/21 00:21:41;;;;;;;5.20;2.55;;;;;;;27.17;53.52;99535.13;1717934;82;21504;-72
2021/06/21 00:24:09;;;;;;;2.77;2.50;;;;;;;27.16;53.48;99519.89;1715618;82;21619;-69
2021/06/21 00:26:37;;;;;;;2.50;2.30;;;;;;;27.15;53.43;99520.16;1703142;82;21043;-69
2021/06/21 00:29:04;;;;;;;2.92;2.30;;;;;;;27.13;53.44;99521.80;1691921;82;21072;-69
2021/06/21 00:31:32;;;;;;;2.92;2.35;;;;;;;27.12;53.42;99526.17;1710218;83;21549;-69
2021/06/21 00:33:59;;;;;;;3.60;2.25;;;;;;;27.12;53.34;99526.17;1729819;81;21057;-69
2021/06/21 00:36:26;;;;;;;5.22;2.50;;;;;;;27.11;53.30;99530.81;1741707;81;21235;-68
2021/06/21 00:38:52;;;;;;;2.60;2.20;;;;;;;27.09;53.28;99520.74;1726583;81;21109;-68
2021/06/21 00:41:19;;;;;;;2.50;2.30;;;;;;;27.09;53.27;99533.57;1730602;81;21128;-67
2021/06/21 00:43:46;;;;;;;2.30;2.10;;;;;;;27.08;53.21;99528.64;1750675;81;21757;-67
2021/06/21 00:46:12;;;;;;;2.85;2.25;;;;;;;27.06;53.17;99526.22;1743115;81;21531;-70
2021/06/21 00:48:41;;;;;;;4.22;2.75;;;;;;;27.05;53.13;99523.77;1737435;81;21036;-71
2021/06/21 00:51:10;;;;;;;2.20;2.00;;;;;;;27.05;53.09;99523.77;1700410;83;21151;-71
2021/06/21 00:53:39;;;;;;;3.87;2.30;;;;;;;27.04;53.03;99514.79;1727732;82;21516;-73
2021/06/21 00:56:09;;;;;;;2.47;2.27;;;;;;;27.03;53.00;99521.33;1683295;83;21030;-72
2021/06/21 00:58:36;;;;;;;4.95;2.47;;;;;;;27.02;52.93;99520.23;1692245;84;21139;-72
2021/06/21 01:01:03;;;;;;;3.45;2.58;;;;;;;27.00;52.92;99516.42;1701686;83;21230;-74
2021/06/21 01:03:30;;;;;;;2.92;2.10;;;;;;;27.00;52.86;99511.53;1705867;82;21796;-72
2021/06/21 01:05:57;;;;;;;3.15;1.92;;;;;;;26.98;52.82;99511.80;1695370;81;21064;-72
2021/06/21 01:08:24;;;;;;;3.20;1.80;;;;;;;26.97;52.84;99510.75;1700843;82;21089;-71
2021/06/21 01:10:55;;;;;;;2.95;2.17;;;;;;;26.96;52.77;99507.19;1705597;83;21044;-72
2021/06/21 01:13:47;;;;;;;2.80;2.10;;;;;;;26.96;52.76;99511.28;1702007;83;21132;-70
2021/06/21 01:16:48;;;;;;;4.17;2.62;;;;;;;26.95;52.70;99508.86;1689964;83;21170;-70
2021/06/21 01:19:31;;;;;;;2.80;2.52;;;;;;;26.92;52.69;99504.77;1714597;82;21037;-70
2021/06/21 01:22:35;;;;;;;2.37;2.10;;;;;;;26.88;52.67;99509.95;1702181;81;21172;-69
2021/06/21 01:25:18;;;;;;;2.00;1.90;;;;;;;26.87;52.68;99506.17;1696065;82;21045;-69
2021/06/21 01:28:09;;;;;;;3.22;2.00;;;;;;;26.83;52.73;99506.45;1688600;83;21127;-70
2021/06/21 01:31:14;;;;;;;2.83;2.15;;;;;;;26.80;52.75;99507.84;1700701;83;21314;-70
2021/06/21 01:33:40;;;;;;;3.70;2.22;;;;;;;26.79;52.74;99506.22;1692186;82;21120;-70
2021/06/21 01:36:08;;;;;;;2.25;1.92;;;;;;;26.76;52.72;99505.41;1712202;83;21105;-69
2021/06/21 01:38:40;;;;;;;3.05;2.00;;;;;;;26.74;52.73;99504.87;1700393;82;21068;-68
2021/06/21 01:41:11;;;;;;;2.33;1.82;;;;;;;26.76;52.71;99501.33;1692014;83;21139;-69
2021/06/21 01:43:43;;;;;;;7.67;2.72;;;;;;;26.75;52.59;99502.96;1706734;82;21266;-68
2021/06/21 01:46:11;;;;;;;3.40;2.05;;;;;;;26.74;52.61;99495.34;1700230;82;21149;-69
2021/06/21 01:48:42;;;;;;;3.22;2.05;;;;;;;26.73;52.61;99490.97;1746245;81;21050;-69
2021/06/21 01:51:09;;;;;;;5.05;2.30;;;;;;;26.73;52.52;99489.61;1697133;82;21066;-69
2021/06/21 01:53:35;;;;;;;5.05;2.60;;;;;;;26.71;52.49;99487.72;1737621;81;21466;-68
2021/06/21 01:56:15;;;;;;;4.05;2.67;;;;;;;26.73;52.48;99486.08;1730160;81;21162;-69
2021/06/21 01:58:41;;;;;;;2.75;1.90;;;;;;;26.72;52.44;99486.64;1717478;81;21171;-69
2021/06/21 02:01:15;;;;;;;5.00;2.55;;;;;;;26.71;52.43;99489.08;1719168;81;20997;-69
2021/06/21 02:03:42;;;;;;;3.55;2.10;;;;;;;26.71;52.43;99480.91;1733475;81;21078;-69
2021/06/21 02:06:09;;;;;;;3.70;2.50;;;;;;;26.70;52.40;99488.83;1726296;81;21048;-69
2021/06/21 02:08:36;;;;;;;4.47;2.08;;;;;;;26.70;52.37;99493.47;1721509;81;21153;-69
2021/06/21 02:11:03;;;;;;;5.53;2.55;;;;;;;26.69;52.32;99499.45;1660068;82;21046;-71
2021/06/21 02:13:29;;;;;;;4.37;2.12;;;;;;;26.68;52.27;99489.11;1699108;83;21168;-70
2021/06/21 02:15:56;;;;;;;4.35;2.40;;;;;;;26.68;52.26;99487.74;1727117;82;21862;-70
2021/06/21 02:18:24;;;;;;;5.58;2.47;;;;;;;26.70;52.22;99487.47;1672577;83;21109;-71
2021/06/21 02:20:52;;;;;;;9.18;3.10;;;;;;;26.68;52.21;99486.38;1746983;81;21154;-71
2021/06/21 02:23:18;;;;;;;7.40;2.72;;;;;;;26.69;52.19;99491.27;1697783;83;21504;-70
2021/06/21 02:25:45;;;;;;;4.87;2.50;;;;;;;26.69;52.17;99492.64;1717753;81;21093;-69
2021/06/21 02:28:13;;;;;;;6.30;2.47;;;;;;;26.68;52.13;99491.83;1694867;83;21085;-69
2021/06/21 02:30:40;;;;;;;2.62;2.30;;;;;;;26.68;52.14;99492.39;1705031;83;21057;-70
2021/06/21 02:33:07;;;;;;;3.98;2.70;;;;;;;26.66;52.10;99485.84;1696473;82;22381;-70
2021/06/21 02:35:33;;;;;;;5.08;3.08;;;;;;;26.67;52.10;99491.55;1695997;83;21038;-72
2021/06/21 02:38:00;;;;;;;7.50;2.92;;;;;;;26.67;52.09;99491.55;1704749;82;21031;-69
2021/06/21 02:40:27;;;;;;;3.22;2.55;;;;;;;26.66;52.11;99491.85;1707600;82;21029;-70
2021/06/21 02:42:53;;;;;;;3.77;2.75;;;;;;;26.66;52.10;99491.85;1690158;83;21085;-71
2021/06/21 02:45:20;;;;;;;3.67;2.25;;;;;;;26.65;52.07;99488.84;1716943;82;21212;-72
2021/06/21 02:47:46;;;;;;;6.58;2.47;;;;;;;26.66;52.09;99490.49;1705323;82;21475;-72
2021/06/21 02:50:13;;;;;;;7.20;2.40;;;;;;;26.65;52.04;99488.30;1702641;82;21177;-72
2021/06/21 02:53:01;;;;;;;2.72;2.27;;;;;;;26.65;52.04;99493.73;1693822;83;21075;-73
2021/06/21 02:55:45;;;;;;;5.75;2.60;;;;;;;26.65;52.03;99486.12;1685867;83;21109;-73
2021/06/21 02:58:32;;;;;;;3.50;2.25;;;;;;;26.63;52.04;99480.95;1696447;82;21082;-72
2021/06/21 03:01:25;;;;;;;3.60;2.12;;;;;;;26.63;52.06;99484.23;1762910;80;21058;-72
2021/06/21 03:04:18;;;;;;;6.87;2.72;;;;;;;26.61;52.05;99476.33;1760083;80;21046;-69
2021/06/21 03:07:11;;;;;;;5.45;2.50;;;;;;;26.59;52.09;99481.80;1753502;80;21177;-69
2021/06/21 03:10:00;;;;;;;7.10;2.30;;;;;;;26.57;52.10;99486.69;1744614;81;21128;-71
2021/06/21 03:15:19;;;;;;;7.17;3.70;;;;;;;26.59;52.13;99489.97;1864966;75;22583;-70
2021/06/21 03:17:48;;;;;;;5.35;3.47;;;;;;;26.51;52.19;99486.45;1796089;77;20977;-72
2021/06/21 03:20:17;;;;;;;6.60;3.12;;;;;;;26.53;52.17;99489.16;1792306;77;21102;-71
2021/06/21 03:22:44;;;;;;;7.20;3.33;;;;;;;26.55;52.13;99492.97;1802985;78;20954;-70
2021/06/21 03:25:13;;;;;;;8.68;3.42;;;;;;;26.56;52.10;99487.77;1812832;77;21100;-69
2021/06/21 03:27:39;;;;;;;4.55;2.60;;;;;;;26.57;52.14;99491.58;1813789;77;20984;-70
2021/06/21 03:30:14;;;;;;;3.58;2.40;;;;;;;26.58;52.08;99491.02;1823666;78;21040;-70
2021/06/21 03:32:48;;;;;;;4.33;2.75;;;;;;;26.60;52.04;99494.34;1834786;77;21324;-69
2021/06/21 03:35:12;;;;;;;4.00;2.58;;;;;;;26.60;51.98;99492.42;1819078;77;20961;-70
2021/06/21 03:37:39;;;;;;;3.62;2.60;;;;;;;26.61;51.94;99493.23;1827330;77;21003;-70
2021/06/21 03:40:07;;;;;;;4.47;2.50;;;;;;;26.62;51.92;99498.96;1825188;77;20987;-70
2021/06/21 03:42:35;;;;;;;4.30;2.58;;;;;;;26.64;51.89;99492.69;1822113;77;21106;-72
2021/06/21 03:45:02;;;;;;;4.45;2.60;;;;;;;26.66;51.85;99501.39;1829507;77;21122;-72
2021/06/21 03:47:28;;;;;;;5.62;2.67;;;;;;;26.67;51.79;99496.19;1836687;77;21008;-71
2021/06/21 03:49:56;;;;;;;3.92;2.37;;;;;;;26.70;51.76;99495.64;1803853;77;21096;-71
2021/06/21 03:52:23;;;;;;;4.28;2.37;;;;;;;26.71;51.77;99487.72;1826574;77;21572;-68
2021/06/21 03:55:06;;;;;;;4.12;2.55;;;;;;;26.72;51.71;99482.55;1826240;77;21040;-70
2021/06/21 03:57:21;;;;;;;3.87;2.35;;;;;;;26.73;51.67;99482.80;1813476;78;21144;-70
2021/06/21 03:59:47;;;;;;;3.52;2.40;;;;;;;26.75;51.67;99484.69;1810325;77;21630;-69
2021/06/21 04:02:13;;;;;;;3.37;2.17;;;;;;;26.77;51.61;99482.53;1804051;77;21477;-69
2021/06/21 04:04:40;;;;;;;3.65;2.33;;;;;;;26.78;51.48;99474.61;1824065;77;21030;-69
2021/06/21 04:07:07;;;;;;;3.80;2.58;;;;;;;26.80;51.45;99478.42;1822913;77;21006;-70
2021/06/21 04:09:34;;;;;;;2.65;2.17;;;;;;;26.81;51.36;99478.14;1824537;78;21139;-70
2021/06/21 04:12:05;;;;;;;3.77;2.20;;;;;;;26.83;51.25;99481.40;1819469;77;21012;-69
2021/06/21 04:14:34;;;;;;;3.20;2.08;;;;;;;26.85;51.23;99481.92;1835784;77;21536;-70
2021/06/21 04:17:02;;;;;;;3.47;2.25;;;;;;;26.87;51.19;99485.73;1820784;78;21537;-70
2021/06/21 04:19:29;;;;;;;3.90;2.20;;;;;;;26.88;51.14;99482.70;1820180;77;21042;-70
2021/06/21 04:21:57;;;;;;;2.37;1.90;;;;;;;26.92;51.02;99486.24;1821295;77;21130;-69
2021/06/21 04:24:24;;;;;;;3.60;1.98;;;;;;;26.94;50.89;99480.77;1823520;77;21072;-69
2021/06/21 04:26:50;;;;;;;4.20;2.20;;;;;;;26.98;50.77;99483.74;1814786;78;20981;-69
2021/06/21 04:29:17;;;;;;;2.87;1.95;;;;;;;27.01;50.67;99484.00;1822073;77;21072;-69
2021/06/21 04:31:43;;;;;;;2.35;2.15;;;;;;;27.04;50.51;99485.33;1813784;77;20998;-70
2021/06/21 04:34:10;;;;;;;4.83;2.17;;;;;;;27.06;50.47;99487.22;1816952;77;21460;-70
2021/06/21 04:36:38;;;;;;;4.58;1.87;;;;;;;27.09;50.47;99481.22;1823653;77;21076;-71
2021/06/21 04:39:05;;;;;;;3.50;1.80;;;;;;;27.12;50.30;99484.75;1800786;77;21044;-69
2021/06/21 04:41:34;;;;;;;3.85;2.35;;;;;;;27.17;50.21;99484.69;1821704;77;21003;-69
2021/06/21 04:44:02;;;;;;;6.03;2.70;;;;;;;27.21;50.13;99477.56;1823893;77;20990;-70
2021/06/21 04:46:33;;;;;;;3.62;2.30;;;;;;;27.25;50.00;99477.32;1821926;77;21194;-69
2021/06/21 04:48:59;;;;;;;2.85;2.30;;;;;;;27.29;49.96;99478.09;1817435;77;21537;-69
2021/06/21 04:51:31;;;;;;;4.92;2.35;;;;;;;27.32;49.87;99478.90;1823844;77;20997;-70
2021/06/21 04:53:56;;;;;;;3.98;2.20;;;;;;;27.36;49.77;99475.86;1817482;77;20985;-69
2021/06/21 04:56:23;;;;;;;3.52;2.58;;;;;;;27.39;49.65;99468.45;1818191;77;21061;-71
2021/06/21 04:58:50;;;;;;;5.33;2.30;;;;;;;27.43;49.49;99470.90;1825131;77;21750;-69
2021/06/21 05:01:16;;;;;;;4.05;2.08;;;;;;;27.45;49.46;99474.95;1822080;78;21018;-70
2021/06/21 05:03:43;;;;;;;2.58;2.02;;;;;;;27.49;49.39;99473.00;1826730;77;21022;-68
2021/06/21 05:06:09;;;;;;;3.00;2.35;;;;;;;27.52;49.40;99473.25;1820039;78;21025;-70
2021/06/21 05:08:37;;;;;;;2.45;2.20;;;;;;;27.56;49.33;99477.58;1806475;77;21099;-70
2021/06/21 05:11:04;;;;;;;2.12;1.92;;;;;;;27.59;49.27;99475.66;1824224;77;21496;-71
2021/06/21 05:13:31;;;;;;;4.30;2.12;;;;;;;27.61;49.18;99474.81;1813997;77;21084;-71
2021/06/21 05:15:58;;;;;;;2.52;2.10;;;;;;;27.62;49.07;99477.27;1830967;76;21056;-70
2021/06/21 05:18:24;;;;;;;3.02;2.37;;;;;;;27.65;49.00;99473.94;1830857;77;21076;-71
2021/06/21 05:20:53;;;;;;;3.17;2.27;;;;;;;27.68;48.95;99477.20;1827147;77;21563;-70
2021/06/21 05:23:20;;;;;;;3.98;2.20;;;;;;;27.68;48.86;99472.57;1829794;78;21088;-71
2021/06/21 05:25:47;;;;;;;4.25;2.00;;;;;;;27.71;48.82;99469.81;1829527;76;21536;-70
2021/06/21 05:28:13;;;;;;;4.22;2.20;;;;;;;27.73;48.82;99464.31;1826009;76;21604;-70
2021/06/21 05:30:40;;;;;;;3.55;2.10;;;;;;;27.74;48.59;99470.58;1830437;77;21000;-72
2021/06/21 05:33:07;;;;;;;3.33;2.00;;;;;;;27.75;48.49;99467.56;1831065;77;21047;-72
2021/06/21 05:35:33;;;;;;;3.47;1.90;;;;;;;27.77;48.45;99460.46;1834840;76;21128;-72
2021/06/21 05:38:00;;;;;;;3.52;2.12;;;;;;;27.79;48.39;99462.34;1829036;78;21556;-72
2021/06/21 05:40:26;;;;;;;3.02;2.00;;;;;;;27.81;48.39;99467.77;1837975;77;21513;-72
2021/06/21 05:42:53;;;;;;;3.87;2.30;;;;;;;27.82;48.40;99465.88;1829868;76;21115;-74
2021/06/21 05:45:19;;;;;;;3.75;2.10;;;;;;;27.85;48.36;99469.38;1835941;76;21047;-72
2021/06/21 05:47:46;;;;;;;2.55;2.08;;;;;;;27.88;48.29;99470.73;1833004;77;21151;-72
2021/06/21 05:50:13;;;;;;;4.72;2.02;;;;;;;27.88;48.30;99475.66;1851831;76;21051;-73
2021/06/21 05:52:40;;;;;;;2.80;1.98;;;;;;;27.90;48.27;99472.09;1828600;78;20994;-71
2021/06/21 05:55:09;;;;;;;2.42;1.70;;;;;;;27.92;48.20;99473.17;1829225;77;21385;-73
2021/06/21 05:57:35;;;;;;;4.08;2.12;;;;;;;27.94;48.28;99469.04;1832379;76;21102;-71
2021/06/21 06:00:04;;;;;;;3.62;2.08;;;;;;;27.97;48.18;99470.36;1832883;77;22341;-71
2021/06/21 06:02:32;;;;;;;5.42;2.00;;;;;;;27.98;48.10;99458.36;1816207;76;21043;-72
2021/06/21 06:04:59;;;;;;;3.35;2.02;;;;;;;28.00;48.05;99461.05;1822512;76;21028;-70
2021/06/21 06:07:25;;;;;;;3.45;2.20;;;;;;;28.02;48.11;99460.77;1833024;77;21505;-73
2021/06/21 06:09:53;;;;;;;3.70;1.85;;;;;;;28.04;48.23;99454.45;1821333;76;21059;-74
2021/06/21 06:12:19;;;;;;;4.12;2.35;;;;;;;28.06;48.25;99454.17;1838779;77;21536;-73
2021/06/21 06:14:47;;;;;;;2.30;1.92;;;;;;;28.08;48.30;99454.13;1828739;78;21064;-72
2021/06/21 06:17:13;;;;;;;5.20;1.95;;;;;;;28.10;48.29;99448.38;1827800;77;21031;-72
2021/06/21 06:19:40;;;;;;;2.50;2.30;;;;;;;28.12;48.34;99444.81;1828884;77;21461;-67
2021/06/21 06:22:07;;;;;;;3.45;2.20;;;;;;;28.12;48.76;99442.08;1823704;76;21096;-68
2021/06/21 06:24:35;;;;;;;2.35;2.12;;;;;;;28.12;49.65;99442.88;1831047;77;21898;-66
2021/06/21 06:27:05;;;;;;;6.67;2.40;;;;;;;28.11;50.12;99436.37;1826230;77;21104;-69
2021/06/21 06:29:33;;;;;;;3.42;2.27;;;;;;;28.12;50.09;99440.71;1828870;77;21001;-62
2021/06/21 06:32:01;;;;;;;5.65;2.45;;;;;;;28.15;50.80;99438.78;1828609;77;21508;-65
2021/06/21 06:34:27;;;;;;;4.72;2.75;;;;;;;28.17;51.44;99431.91;1823594;77;22130;-64
2021/06/21 06:36:54;;;;;;;3.10;2.20;;;;;;;28.19;52.14;99435.72;1829856;77;21729;-66
2021/06/21 06:39:21;;;;;;;4.92;2.85;;;;;;;28.18;51.68;99429.98;1829876;78;21017;-63
2021/06/21 06:41:47;;;;;;;4.15;2.72;;;;;;;28.16;51.49;99423.47;1828471;77;21552;-66
2021/06/21 06:44:14;;;;;;;6.58;2.75;;;;;;;28.16;51.69;99421.27;1830208;77;21064;-65
2021/06/21 06:46:41;;;;;;;2.62;2.30;;;;;;;28.15;51.84;99419.10;1836950;77;21092;-65
2021/06/21 06:49:08;;;;;;;2.92;2.58;;;;;;;28.16;52.16;99424.00;1828419;77;21962;-66
2021/06/21 06:51:39;;;;;;;5.55;2.95;;;;;;;28.17;52.42;99428.38;1830463;77;21438;-66
2021/06/21 06:54:06;;;;;;;10.80;2.62;;;;;;;28.18;52.30;99422.63;1809344;77;21508;-65
2021/06/21 06:59:18;;;;;;;5.72;2.77;;;;;;;28.19;52.46;99412.51;1821457;76;21497;-68
2021/06/21 07:01:45;;;;;;;3.20;2.83;;;;;;;28.20;52.39;99408.66;1826960;78;21206;-66
2021/06/21 07:04:11;;;;;;;3.67;2.33;;;;;;;28.21;52.53;99400.73;1820673;77;21025;-67
2021/06/21 07:06:39;;;;;;;3.33;2.45;;;;;;;28.23;52.59;99401.25;1820740;77;21072;-66
2021/06/21 07:09:08;;;;;;;6.40;2.52;;;;;;;28.24;52.56;99400.97;1813175;78;21013;-67
2021/06/21 07:11:36;;;;;;;4.85;2.77;;;;;;;28.26;52.38;99406.67;1812404;77;21290;-66
2021/06/21 07:14:05;;;;;;;5.05;2.42;;;;;;;28.28;52.42;99404.45;1820414;77;21796;-69
2021/06/21 07:16:35;;;;;;;5.50;2.80;;;;;;;28.29;52.36;99403.36;1829572;77;21064;-67
2021/06/21 07:19:01;;;;;;;4.33;2.83;;;;;;;28.32;52.30;99406.86;1786197;78;21602;-66
2021/06/21 07:21:28;;;;;;;3.72;3.08;;;;;;;28.33;52.62;99398.94;1814940;77;21056;-75
2021/06/21 07:23:55;;;;;;;8.33;3.55;;;;;;;28.35;53.10;99408.45;1827094;77;21574;-66
2021/06/21 07:26:22;;;;;;;5.53;2.70;;;;;;;28.37;53.93;99405.43;1824889;77;21113;-74
2021/06/21 07:28:50;;;;;;;5.03;3.20;;;;;;;28.39;54.41;99417.67;1823518;78;21025;-74
2021/06/21 07:31:16;;;;;;;5.55;2.80;;;;;;;28.41;54.53;99417.39;1820610;78;21060;-74
2021/06/21 07:33:43;;;;;;;6.53;2.75;;;;;;;28.42;54.30;99411.64;1826441;77;21545;-74
2021/06/21 07:36:09;;;;;;;4.65;2.85;;;;;;;28.45;54.38;99402.03;1821452;77;21087;-74
2021/06/21 07:38:36;;;;;;;5.97;2.90;;;;;;;28.47;54.27;99404.47;1823494;77;22501;-79
2021/06/21 07:41:03;;;;;;;5.62;2.85;;;;;;;28.47;55.02;99408.01;1824335;77;20990;-76
2021/06/21 07:43:30;;;;;;;5.55;2.65;;;;;;;28.49;55.54;99410.45;1816097;77;21069;-79
2021/06/21 07:45:56;;;;;;;7.80;2.70;;;;;;;28.50;55.84;99416.19;1810955;77;21564;-77
2021/06/21 07:48:23;;;;;;;7.90;2.75;;;;;;;28.51;56.13;99415.06;1812598;77;21102;-77
2021/06/21 07:50:49;;;;;;;6.95;3.12;;;;;;;28.52;56.38;99415.38;1810386;77;21838;-76
2021/06/21 07:53:16;;;;;;;7.25;2.92;;;;;;;28.51;56.55;99410.97;1806125;77;20998;-76
2021/06/21 07:55:43;;;;;;;4.85;2.75;;;;;;;28.53;56.46;99407.41;1798728;77;21084;-77
2021/06/21 07:58:09;;;;;;;5.70;3.12;;;;;;;28.53;56.65;99404.69;1819670;77;21033;-74
2021/06/21 08:00:39;;;;;;;7.05;3.00;;;;;;;28.53;56.63;99407.41;1819238;77;21032;-73
2021/06/21 08:03:09;;;;;;;6.85;3.40;;;;;;;28.53;56.70;99406.88;1820526;77;21121;-72
2021/06/21 08:05:34;;;;;;;5.60;3.40;;;;;;;28.55;56.51;99409.30;1812859;77;20998;-73
2021/06/21 08:08:01;;;;;;;3.85;2.95;;;;;;;28.57;56.43;99408.48;1816745;77;21115;-74
2021/06/21 08:10:27;;;;;;;5.40;2.92;;;;;;;28.58;56.18;99403.25;1814746;77;21682;-71
2021/06/21 08:12:54;;;;;;;4.30;3.00;;;;;;;28.59;56.37;99403.53;1814647;77;20986;-75
2021/06/21 08:15:21;;;;;;;6.35;2.67;;;;;;;28.61;56.18;99404.04;1824553;77;21088;-74
2021/06/21 08:17:47;;;;;;;5.00;3.15;;;;;;;28.61;56.00;99410.88;1819886;77;21040;-72
2021/06/21 08:20:15;;;;;;;5.65;3.33;;;;;;;28.62;55.98;99408.38;1811941;77;21033;-72
2021/06/21 08:22:42;;;;;;;6.08;3.02;;;;;;;28.66;56.17;99405.87;1809995;77;21596;-72
2021/06/21 08:25:10;;;;;;;8.85;4.17;;;;;;;28.67;55.34;99401.48;1808815;77;21026;-73
2021/06/21 08:27:37;;;;;;;8.03;3.70;;;;;;;28.68;55.57;99396.26;1812792;77;21064;-72
2021/06/21 08:30:08;;;;;;;6.35;3.95;;;;;;;28.70;55.97;99391.30;1816994;77;21038;-72
2021/06/21 08:32:35;;;;;;;5.87;3.60;;;;;;;28.73;55.81;99388.55;1811853;77;21061;-71
2021/06/21 08:35:03;;;;;;;5.08;3.83;;;;;;;28.73;55.88;99387.99;1805014;77;21531;-72
2021/06/21 08:37:30;;;;;;;6.08;3.77;;;;;;;28.72;54.71;99391.81;1811122;77;20990;-72
2021/06/21 08:39:56;;;;;;;4.75;3.80;;;;;;;28.73;55.39;99390.73;1813233;77;21749;-72
2021/06/21 08:42:23;;;;;;;4.92;4.20;;;;;;;28.74;55.79;99383.33;1809654;77;21004;-72
2021/06/21 08:44:49;;;;;;;4.72;3.47;;;;;;;28.73;55.87;99393.45;1822664;77;21555;-74
2021/06/21 08:47:19;;;;;;;5.20;3.30;;;;;;;28.73;55.54;99389.36;1806738;77;21517;-74
2021/06/21 08:49:48;;;;;;;5.35;3.17;;;;;;;28.73;55.59;99383.89;1804721;77;21037;-73
2021/06/21 08:52:18;;;;;;;6.22;3.25;;;;;;;28.74;55.37;99393.73;1808233;77;22001;-78
2021/06/21 08:54:44;;;;;;;8.63;3.55;;;;;;;28.75;55.43;99401.36;1811629;77;21108;-72
2021/06/21 08:57:11;;;;;;;6.33;3.70;;;;;;;28.75;55.55;99393.97;1803622;77;21024;-71
2021/06/21 08:59:41;;;;;;;11.20;4.28;;;;;;;28.76;55.45;99392.88;1807345;77;21913;-73
2021/06/21 09:02:08;;;;;;;11.22;4.33;;;;;;;28.77;55.65;99393.12;1812919;77;21268;-73
2021/06/21 09:04:38;;;;;;;8.03;3.87;;;;;;;28.78;55.04;99395.28;1806339;77;21063;-73
2021/06/21 09:07:25;;;;;;;11.43;3.92;;;;;;;28.79;55.71;99403.76;1820383;77;21613;-73
2021/06/21 09:09:53;;;;;;;7.78;3.92;;;;;;;28.80;55.81;99404.83;1812344;77;21524;-73
2021/06/21 09:12:28;;;;;;;7.70;3.83;;;;;;;28.82;56.03;99409.45;1812439;77;21628;-73
2021/06/21 09:14:56;;;;;;;6.92;3.52;;;;;;;28.84;56.08;99405.05;1817575;76;21048;-72
2021/06/21 09:17:27;;;;;;;10.38;3.92;;;;;;;28.88;56.00;99407.98;1816114;77;21111;-73
2021/06/21 09:20:00;;;;;;;7.60;3.85;;;;;;;28.90;56.01;99405.23;1820282;77;21033;-73
2021/06/21 09:22:41;;;;;;;8.88;4.25;;;;;;;28.93;56.08;99396.97;1807568;77;21513;-73
2021/06/21 09:25:19;;;;;;;7.70;4.05;;;;;;;28.97;56.00;99406.20;1813780;77;21073;-73
2021/06/21 09:28:01;;;;;;;6.00;3.22;;;;;;;28.99;56.13;99405.34;1812557;77;21037;-72
2021/06/21 09:30:29;;;;;;;;;;;;;;;29.01;55.88;99403.95;1809018;77;21119;-72
2021/06/21 09:32:59;;;;;;;8.13;3.85;;;;;;;28.99;54.89;99401.23;1800046;77;20197;-74
2021/06/21 09:35:34;;;;;;;5.53;3.30;;;;;;;28.93;54.28;99403.81;1804793;77;21017;-73
2021/06/21 09:38:12;;;;;;;4.70;3.30;;;;;;;28.93;53.74;99396.97;1804578;77;21021;-73
2021/06/21 09:40:43;;;;;;;5.03;3.47;;;;;;;28.95;53.40;99402.95;1809737;77;21049;-73
2021/06/21 09:43:31;;;;;;;4.83;3.42;;;;;;;28.95;52.71;99404.32;1813368;77;21918;-73
2021/06/21 09:46:18;;;;;;;3.55;3.08;;;;;;;28.95;52.74;99409.78;1824764;77;21025;-72
2021/06/21 09:48:53;;;;;;;6.97;3.50;;;;;;;28.89;52.21;99397.31;1825037;77;21045;-74
2021/06/21 09:51:35;;;;;;;7.62;3.17;;;;;;;28.97;51.99;99415.77;1819149;77;21541;-73
2021/06/21 09:54:08;;;;;;;6.35;3.40;;;;;;;28.98;51.38;99417.41;1821163;77;20997;-73
2021/06/21 09:56:51;;;;;;;4.58;3.00;;;;;;;28.99;51.52;99414.37;1823795;77;21348;-73
2021/06/21 09:59:29;;;;;;;4.72;3.30;;;;;;;29.02;51.82;99419.23;1823968;77;21033;-73
2021/06/21 10:02:14;;;;;;;6.62;3.15;;;;;;;29.05;52.05;99420.55;1823656;77;20994;-73
2021/06/21 10:04:43;;;;;;;4.05;3.00;;;;;;;29.09;52.20;99424.87;1790097;78;21549;-74
2021/06/21 10:07:36;;;;;;;4.58;2.90;;;;;;;29.13;52.13;99436.33;1825852;77;21056;-74
2021/06/21 10:10:09;;;;;;;8.98;3.52;;;;;;;29.16;52.01;99435.71;1821710;77;22556;-72
2021/06/21 10:12:36;;;;;;;4.85;3.30;;;;;;;29.18;51.96;99428.02;1819793;78;21002;-73
2021/06/21 10:15:08;;;;;;;5.80;3.20;;;;;;;29.24;52.05;99413.70;1784107;77;21671;-74
2021/06/21 10:17:34;;;;;;;3.87;3.20;;;;;;;29.29;52.17;99414.99;1818780;77;20969;-73
2021/06/21 10:20:01;;;;;;;4.12;3.22;;;;;;;29.34;52.17;99419.55;1808976;77;21083;-72
2021/06/21 10:22:28;;;;;;;7.85;3.27;;;;;;;29.39;51.97;99412.63;1812222;77;21036;-73
2021/06/21 10:24:56;;;;;;;3.90;2.87;;;;;;;29.44;51.63;99430.86;1824428;77;21033;-73
2021/06/21 10:27:25;;;;;;;4.87;3.05;;;;;;;29.49;51.54;99423.94;1825741;77;21068;-73
2021/06/21 10:29:52;;;;;;;4.45;3.33;;;;;;;29.53;51.68;99423.59;1827252;77;21033;-72
2021/06/21 10:32:18;;;;;;;4.05;3.25;;;;;;;29.56;51.33;99421.06;1825849;77;21063;-73
2021/06/21 10:34:49;;;;;;;6.80;3.45;;;;;;;29.60;51.21;99430.86;1817661;77;21119;-73
2021/06/21 10:37:25;;;;;;;3.70;3.05;;;;;;;29.66;51.19;99426.91;1826427;77;21561;-74
2021/06/21 10:40:09;;;;;;;4.72;3.10;;;;;;;29.72;50.99;99422.14;1754479;80;21061;-71
2021/06/21 10:42:43;;;;;;;4.70;3.08;;;;;;;29.76;50.56;99418.52;1753873;80;21009;-69
2021/06/21 10:45:23;;;;;;;5.17;2.90;;;;;;;29.80;50.53;99414.62;1778575;79;21013;-69
2021/06/21 10:47:53;;;;;;;4.55;3.10;;;;;;;29.85;50.41;99418.64;1779816;78;21147;-68
2021/06/21 10:50:25;;;;;;;4.25;2.92;;;;;;;29.89;50.31;99410.62;1769532;78;21088;-67
2021/06/21 10:52:57;;;;;;;3.58;3.25;;;;;;;29.93;50.14;99409.70;1753091;79;21078;-68
2021/06/21 10:55:33;;;;;;;6.08;3.40;;;;;;;29.99;50.12;99405.73;1758810;79;21034;-69
2021/06/21 10:58:24;;;;;;;5.00;3.30;;;;;;;30.04;50.19;99409.48;1757719;78;21061;-67
2021/06/21 11:00:52;;;;;;;3.80;3.40;;;;;;;30.09;50.13;99406.64;1767928;79;21071;-69
2021/06/21 11:03:32;;;;;;;6.42;2.90;;;;;;;30.14;49.91;99413.40;1771208;78;21556;-69
2021/06/21 11:06:23;;;;;;;3.42;2.70;;;;;;;30.18;49.78;99408.92;1763132;79;21116;-68
2021/06/21 11:08:54;;;;;;;3.45;3.02;;;;;;;30.22;49.75;99417.34;1771049;78;21500;-68
2021/06/21 11:11:41;;;;;;;5.05;3.27;;;;;;;30.25;49.69;99421.66;1768435;78;21116;-74
2021/06/21 11:14:22;;;;;;;4.20;3.20;;;;;;;30.30;49.67;99413.30;1762097;78;21121;-73
2021/06/21 11:16:51;;;;;;;5.17;3.55;;;;;;;30.34;49.47;99408.06;1772976;78;21031;-73
2021/06/21 11:19:26;;;;;;;5.03;3.70;;;;;;;30.37;49.39;99413.73;1768064;80;21077;-73
2021/06/21 11:22:02;;;;;;;4.75;3.42;;;;;;;30.44;49.28;99428.94;1772725;78;22014;-73
2021/06/21 11:24:48;;;;;;;4.72;2.70;;;;;;;30.48;49.27;99414.87;1774292;78;21045;-74
2021/06/21 11:27:24;;;;;;;4.22;3.08;;;;;;;30.51;49.08;99426.03;1774484;78;21404;-73
2021/06/21 11:29:55;;;;;;;4.75;3.37;;;;;;;30.55;49.12;99422.92;1777573;78;21045;-73
2021/06/21 11:32:24;;;;;;;4.85;3.65;;;;;;;30.60;48.81;99423.38;1773889;78;21068;-73
2021/06/21 11:34:57;;;;;;;6.47;3.20;;;;;;;30.65;48.84;99428.73;1777715;78;21073;-74
2021/06/21 11:37:39;;;;;;;5.15;3.12;;;;;;;30.69;48.66;99425.61;1761581;78;21511;-73
2021/06/21 11:40:21;;;;;;;4.50;2.90;;;;;;;30.73;48.53;99426.64;1768205;78;21552;-72
2021/06/21 11:43:06;;;;;;;4.72;3.20;;;;;;;30.76;48.51;99427.38;1766013;78;20958;-69
2021/06/21 11:45:59;;;;;;;6.33;3.17;;;;;;;30.82;48.13;99428.63;1772950;78;21045;-69
2021/06/21 11:48:31;;;;;;;5.67;3.50;;;;;;;30.85;47.93;99419.77;1751025;78;21041;-69
2021/06/21 11:51:15;;;;;;;7.60;3.42;;;;;;;30.88;47.65;99419.95;1766848;79;21063;-68
2021/06/21 11:53:46;;;;;;;7.12;3.22;;;;;;;30.92;47.49;99420.98;1773125;78;21088;-68
2021/06/21 11:56:14;;;;;;;4.33;3.00;;;;;;;30.96;47.46;99414.31;1766241;79;20990;-73